sensor_id;sensor_type;location;lat;lon;timestamp;P1;durP1;ratioP1;P2;durP2;ratioP2
76701;SDS011;70097;44.536;0.146;2023-07-08T00:00:43;3.73;;;1.40;;
76701;SDS011;70097;44.536;0.146;2023-07-08T00:06:18;2.73;;;1.30;;
76701;SDS011;70097;44.536;0.146;2023-07-08T00:11:49;4.27;;;1.57;;
76701;SDS011;70097;44.536;0.146;2023-07-08T00:17:22;3.73;;;1.43;;
76701;SDS011;70097;44.536;0.146;2023-07-08T00:22:54;2.10;;;1.30;;
76701;SDS011;70097;44.536;0.146;2023-07-08T00:33:59;2.43;;;1.10;;
76701;SDS011;70097;44.536;0.146;2023-07-08T00:39:33;3.23;;;1.37;;
76701;SDS011;70097;44.536;0.146;2023-07-08T00:45:09;1.87;;;1.00;;
76701;SDS011;70097;44.536;0.146;2023-07-08T00:50:40;3.10;;;1.27;;
76701;SDS011;70097;44.536;0.146;2023-07-08T00:56:15;2.83;;;1.43;;
76701;SDS011;70097;44.536;0.146;2023-07-08T01:01:45;3.13;;;1.20;;
76701;SDS011;70097;44.536;0.146;2023-07-08T01:07:18;2.60;;;1.20;;
76701;SDS011;70097;44.536;0.146;2023-07-08T01:12:51;4.30;;;1.40;;
76701;SDS011;70097;44.536;0.146;2023-07-08T01:18:23;6.17;;;1.50;;
76701;SDS011;70097;44.536;0.146;2023-07-08T01:23:56;6.63;;;1.37;;
76701;SDS011;70097;44.536;0.146;2023-07-08T01:29:30;2.10;;;1.10;;
76701;SDS011;70097;44.536;0.146;2023-07-08T01:35:05;2.50;;;0.97;;
76701;SDS011;70097;44.536;0.146;2023-07-08T01:40:37;3.93;;;1.10;;
76701;SDS011;70097;44.536;0.146;2023-07-08T01:46:10;2.17;;;1.13;;
76701;SDS011;70097;44.536;0.146;2023-07-08T01:51:42;1.47;;;1.00;;
76701;SDS011;70097;44.536;0.146;2023-07-08T01:57:14;4.37;;;1.20;;
76701;SDS011;70097;44.536;0.146;2023-07-08T02:02:47;4.07;;;1.20;;
76701;SDS011;70097;44.536;0.146;2023-07-08T02:08:21;2.60;;;1.00;;
76701;SDS011;70097;44.536;0.146;2023-07-08T02:13:54;2.20;;;1.30;;
76701;SDS011;70097;44.536;0.146;2023-07-08T02:19:28;3.53;;;1.60;;
76701;SDS011;70097;44.536;0.146;2023-07-08T02:25:01;4.90;;;1.50;;
76701;SDS011;70097;44.536;0.146;2023-07-08T02:30:34;2.83;;;1.30;;
76701;SDS011;70097;44.536;0.146;2023-07-08T02:36:06;4.70;;;1.40;;
76701;SDS011;70097;44.536;0.146;2023-07-08T02:41:38;3.80;;;1.37;;
76701;SDS011;70097;44.536;0.146;2023-07-08T02:47:11;3.67;;;1.50;;
76701;SDS011;70097;44.536;0.146;2023-07-08T02:52:43;3.80;;;1.23;;
76701;SDS011;70097;44.536;0.146;2023-07-08T02:58:16;3.37;;;2.30;;
76701;SDS011;70097;44.536;0.146;2023-07-08T03:03:49;1.87;;;1.27;;
76701;SDS011;70097;44.536;0.146;2023-07-08T03:09:21;6.13;;;2.10;;
76701;SDS011;70097;44.536;0.146;2023-07-08T03:14:55;3.13;;;1.47;;
76701;SDS011;70097;44.536;0.146;2023-07-08T03:20:28;3.27;;;1.23;;
76701;SDS011;70097;44.536;0.146;2023-07-08T03:26:01;10.80;;;3.17;;
76701;SDS011;70097;44.536;0.146;2023-07-08T03:31:33;4.57;;;1.80;;
76701;SDS011;70097;44.536;0.146;2023-07-08T03:37:06;3.97;;;1.67;;
76701;SDS011;70097;44.536;0.146;2023-07-08T03:42:39;3.90;;;2.47;;
76701;SDS011;70097;44.536;0.146;2023-07-08T03:48:11;5.67;;;1.50;;
76701;SDS011;70097;44.536;0.146;2023-07-08T03:53:44;4.13;;;1.60;;
76701;SDS011;70097;44.536;0.146;2023-07-08T03:59:17;3.63;;;1.40;;
76701;SDS011;70097;44.536;0.146;2023-07-08T04:04:49;5.73;;;1.40;;
76701;SDS011;70097;44.536;0.146;2023-07-08T04:10:21;7.23;;;1.90;;
76701;SDS011;70097;44.536;0.146;2023-07-08T04:15:55;6.00;;;2.20;;
76701;SDS011;70097;44.536;0.146;2023-07-08T04:21:26;3.90;;;2.23;;
76701;SDS011;70097;44.536;0.146;2023-07-08T04:26:59;3.43;;;1.63;;
76701;SDS011;70097;44.536;0.146;2023-07-08T04:32:31;4.70;;;2.40;;
76701;SDS011;70097;44.536;0.146;2023-07-08T04:38:05;4.27;;;2.60;;
76701;SDS011;70097;44.536;0.146;2023-07-08T04:43:36;8.30;;;3.63;;
76701;SDS011;70097;44.536;0.146;2023-07-08T04:49:09;7.80;;;3.77;;
76701;SDS011;70097;44.536;0.146;2023-07-08T04:54:42;3.77;;;2.23;;
76701;SDS011;70097;44.536;0.146;2023-07-08T05:00:15;3.97;;;1.70;;
76701;SDS011;70097;44.536;0.146;2023-07-08T05:05:47;4.63;;;2.27;;
76701;SDS011;70097;44.536;0.146;2023-07-08T05:11:21;4.17;;;2.10;;
76701;SDS011;70097;44.536;0.146;2023-07-08T05:16:53;5.00;;;2.40;;
76701;SDS011;70097;44.536;0.146;2023-07-08T05:22:25;4.93;;;2.60;;
76701;SDS011;70097;44.536;0.146;2023-07-08T05:27:58;10.90;;;2.80;;
76701;SDS011;70097;44.536;0.146;2023-07-08T05:33:32;5.07;;;2.23;;
76701;SDS011;70097;44.536;0.146;2023-07-08T05:39:04;7.17;;;1.80;;
76701;SDS011;70097;44.536;0.146;2023-07-08T05:44:37;7.33;;;2.47;;
76701;SDS011;70097;44.536;0.146;2023-07-08T05:50:09;5.60;;;2.20;;
76701;SDS011;70097;44.536;0.146;2023-07-08T05:55:41;4.67;;;2.50;;
76701;SDS011;70097;44.536;0.146;2023-07-08T06:01:15;6.37;;;2.77;;
76701;SDS011;70097;44.536;0.146;2023-07-08T06:06:47;5.50;;;2.77;;
76701;SDS011;70097;44.536;0.146;2023-07-08T06:12:19;7.07;;;3.20;;
76701;SDS011;70097;44.536;0.146;2023-07-08T06:17:51;10.20;;;4.00;;
76701;SDS011;70097;44.536;0.146;2023-07-08T06:23:25;6.67;;;3.13;;
76701;SDS011;70097;44.536;0.146;2023-07-08T06:28:57;9.53;;;3.10;;
76701;SDS011;70097;44.536;0.146;2023-07-08T06:34:31;5.20;;;2.70;;
76701;SDS011;70097;44.536;0.146;2023-07-08T06:40:04;4.93;;;2.60;;
76701;SDS011;70097;44.536;0.146;2023-07-08T06:45:37;7.03;;;2.87;;
76701;SDS011;70097;44.536;0.146;2023-07-08T06:51:10;4.63;;;2.73;;
76701;SDS011;70097;44.536;0.146;2023-07-08T06:56:42;10.20;;;3.00;;
76701;SDS011;70097;44.536;0.146;2023-07-08T07:02:15;11.50;;;3.20;;
76701;SDS011;70097;44.536;0.146;2023-07-08T07:07:49;10.37;;;3.47;;
76701;SDS011;70097;44.536;0.146;2023-07-08T07:13:21;13.17;;;5.27;;
76701;SDS011;70097;44.536;0.146;2023-07-08T07:18:55;8.47;;;3.73;;
76701;SDS011;70097;44.536;0.146;2023-07-08T07:24:28;9.43;;;4.03;;
76701;SDS011;70097;44.536;0.146;2023-07-08T07:30:02;5.93;;;2.87;;
76701;SDS011;70097;44.536;0.146;2023-07-08T07:35:35;7.73;;;3.37;;
76701;SDS011;70097;44.536;0.146;2023-07-08T07:41:08;6.70;;;3.13;;
76701;SDS011;70097;44.536;0.146;2023-07-08T07:46:41;9.43;;;3.60;;
76701;SDS011;70097;44.536;0.146;2023-07-08T07:52:14;10.03;;;5.10;;
76701;SDS011;70097;44.536;0.146;2023-07-08T07:57:48;9.53;;;4.17;;
76701;SDS011;70097;44.536;0.146;2023-07-08T08:03:21;7.43;;;3.40;;
76701;SDS011;70097;44.536;0.146;2023-07-08T08:08:54;7.70;;;3.43;;
76701;SDS011;70097;44.536;0.146;2023-07-08T08:20:00;13.63;;;3.57;;
76701;SDS011;70097;44.536;0.146;2023-07-08T08:25:32;7.87;;;3.43;;
76701;SDS011;70097;44.536;0.146;2023-07-08T08:31:06;10.03;;;3.40;;
76701;SDS011;70097;44.536;0.146;2023-07-08T08:36:39;10.90;;;3.10;;
76701;SDS011;70097;44.536;0.146;2023-07-08T08:42:13;10.47;;;5.07;;
76701;SDS011;70097;44.536;0.146;2023-07-08T08:47:46;7.53;;;2.83;;
76701;SDS011;70097;44.536;0.146;2023-07-08T08:53:19;7.43;;;3.17;;
76701;SDS011;70097;44.536;0.146;2023-07-08T08:58:52;6.97;;;2.97;;
76701;SDS011;70097;44.536;0.146;2023-07-08T09:04:25;6.60;;;3.33;;
76701;SDS011;70097;44.536;0.146;2023-07-08T09:09:58;5.80;;;2.70;;
76701;SDS011;70097;44.536;0.146;2023-07-08T09:15:30;11.33;;;3.10;;
76701;SDS011;70097;44.536;0.146;2023-07-08T09:21:06;6.30;;;2.63;;
76701;SDS011;70097;44.536;0.146;2023-07-08T09:26:37;7.20;;;3.20;;
76701;SDS011;70097;44.536;0.146;2023-07-08T09:32:13;6.30;;;3.73;;
76701;SDS011;70097;44.536;0.146;2023-07-08T09:37:45;7.23;;;4.00;;
76701;SDS011;70097;44.536;0.146;2023-07-08T09:43:20;6.80;;;2.87;;
76701;SDS011;70097;44.536;0.146;2023-07-08T09:48:50;8.50;;;2.60;;
76701;SDS011;70097;44.536;0.146;2023-07-08T09:54:24;4.43;;;2.40;;
76701;SDS011;70097;44.536;0.146;2023-07-08T09:59:58;8.60;;;2.43;;
76701;SDS011;70097;44.536;0.146;2023-07-08T10:05:31;7.80;;;2.40;;
76701;SDS011;70097;44.536;0.146;2023-07-08T10:11:04;5.07;;;2.37;;
76701;SDS011;70097;44.536;0.146;2023-07-08T10:16:35;6.47;;;2.50;;
76701;SDS011;70097;44.536;0.146;2023-07-08T10:22:13;8.10;;;2.80;;
76701;SDS011;70097;44.536;0.146;2023-07-08T10:27:44;6.00;;;2.40;;
76701;SDS011;70097;44.536;0.146;2023-07-08T10:33:20;8.07;;;2.70;;
76701;SDS011;70097;44.536;0.146;2023-07-08T10:38:50;4.50;;;2.37;;
76701;SDS011;70097;44.536;0.146;2023-07-08T10:44:23;6.97;;;2.83;;
76701;SDS011;70097;44.536;0.146;2023-07-08T10:49:56;9.03;;;4.73;;
76701;SDS011;70097;44.536;0.146;2023-07-08T10:55:29;9.43;;;3.80;;
76701;SDS011;70097;44.536;0.146;2023-07-08T11:01:04;6.77;;;2.47;;
76701;SDS011;70097;44.536;0.146;2023-07-08T11:06:37;5.77;;;2.60;;
76701;SDS011;70097;44.536;0.146;2023-07-08T11:12:08;7.50;;;2.50;;
76701;SDS011;70097;44.536;0.146;2023-07-08T11:17:42;4.53;;;2.20;;
76701;SDS011;70097;44.536;0.146;2023-07-08T11:23:19;7.00;;;2.70;;
76701;SDS011;70097;44.536;0.146;2023-07-08T11:28:46;8.00;;;3.80;;
76701;SDS011;70097;44.536;0.146;2023-07-08T11:34:18;7.37;;;2.47;;
76701;SDS011;70097;44.536;0.146;2023-07-08T11:39:55;5.50;;;2.27;;
76701;SDS011;70097;44.536;0.146;2023-07-08T11:45:25;6.57;;;2.40;;
76701;SDS011;70097;44.536;0.146;2023-07-08T11:50:57;6.37;;;2.67;;
76701;SDS011;70097;44.536;0.146;2023-07-08T11:56:34;4.67;;;2.63;;
76701;SDS011;70097;44.536;0.146;2023-07-08T12:02:03;5.97;;;2.63;;
76701;SDS011;70097;44.536;0.146;2023-07-08T12:07:37;6.13;;;2.43;;
76701;SDS011;70097;44.536;0.146;2023-07-08T12:13:09;7.90;;;3.93;;
76701;SDS011;70097;44.536;0.146;2023-07-08T12:18:42;4.87;;;2.80;;
76701;SDS011;70097;44.536;0.146;2023-07-08T12:24:14;7.47;;;3.53;;
76701;SDS011;70097;44.536;0.146;2023-07-08T12:29:46;8.30;;;2.90;;
76701;SDS011;70097;44.536;0.146;2023-07-08T12:35:21;5.80;;;2.50;;
76701;SDS011;70097;44.536;0.146;2023-07-08T12:40:51;5.63;;;2.73;;
76701;SDS011;70097;44.536;0.146;2023-07-08T12:46:24;8.20;;;2.97;;
76701;SDS011;70097;44.536;0.146;2023-07-08T12:51:57;6.13;;;2.93;;
76701;SDS011;70097;44.536;0.146;2023-07-08T12:57:30;5.37;;;2.70;;
76701;SDS011;70097;44.536;0.146;2023-07-08T13:03:04;5.17;;;2.20;;
76701;SDS011;70097;44.536;0.146;2023-07-08T13:08:35;6.33;;;2.57;;
76701;SDS011;70097;44.536;0.146;2023-07-08T13:14:08;6.67;;;2.87;;
76701;SDS011;70097;44.536;0.146;2023-07-08T13:19:42;5.00;;;2.90;;
76701;SDS011;70097;44.536;0.146;2023-07-08T13:25:16;6.50;;;3.50;;
76701;SDS011;70097;44.536;0.146;2023-07-08T13:30:51;5.50;;;3.30;;
76701;SDS011;70097;44.536;0.146;2023-07-08T13:36:21;4.23;;;2.33;;
76701;SDS011;70097;44.536;0.146;2023-07-08T13:41:53;5.77;;;2.50;;
76701;SDS011;70097;44.536;0.146;2023-07-08T13:47:27;13.37;;;3.17;;
76701;SDS011;70097;44.536;0.146;2023-07-08T13:52:59;4.43;;;2.40;;
76701;SDS011;70097;44.536;0.146;2023-07-08T13:58:31;7.70;;;2.77;;
76701;SDS011;70097;44.536;0.146;2023-07-08T14:04:05;6.20;;;2.53;;
76701;SDS011;70097;44.536;0.146;2023-07-08T14:09:38;8.83;;;3.20;;
76701;SDS011;70097;44.536;0.146;2023-07-08T14:15:10;5.40;;;2.57;;
76701;SDS011;70097;44.536;0.146;2023-07-08T14:20:44;5.17;;;3.50;;
76701;SDS011;70097;44.536;0.146;2023-07-08T14:26:17;7.27;;;2.57;;
76701;SDS011;70097;44.536;0.146;2023-07-08T14:31:51;4.77;;;2.43;;
76701;SDS011;70097;44.536;0.146;2023-07-08T14:37:23;4.47;;;2.70;;
76701;SDS011;70097;44.536;0.146;2023-07-08T14:42:59;7.07;;;2.87;;
76701;SDS011;70097;44.536;0.146;2023-07-08T14:48:30;5.80;;;3.00;;
76701;SDS011;70097;44.536;0.146;2023-07-08T14:54:01;6.97;;;2.60;;
76701;SDS011;70097;44.536;0.146;2023-07-08T14:59:34;5.63;;;2.83;;
76701;SDS011;70097;44.536;0.146;2023-07-08T15:05:09;5.10;;;2.50;;
76701;SDS011;70097;44.536;0.146;2023-07-08T15:10:39;5.73;;;2.83;;
76701;SDS011;70097;44.536;0.146;2023-07-08T15:16:12;6.47;;;3.47;;
76701;SDS011;70097;44.536;0.146;2023-07-08T15:21:45;6.20;;;2.97;;
76701;SDS011;70097;44.536;0.146;2023-07-08T15:27:18;6.17;;;2.87;;
76701;SDS011;70097;44.536;0.146;2023-07-08T15:32:50;6.00;;;2.73;;
76701;SDS011;70097;44.536;0.146;2023-07-08T15:38:22;4.50;;;2.70;;
76701;SDS011;70097;44.536;0.146;2023-07-08T15:43:55;14.87;;;4.30;;
76701;SDS011;70097;44.536;0.146;2023-07-08T15:49:28;16.40;;;3.00;;
76701;SDS011;70097;44.536;0.146;2023-07-08T15:55:00;5.87;;;2.70;;
76701;SDS011;70097;44.536;0.146;2023-07-08T16:00:38;8.57;;;2.97;;
76701;SDS011;70097;44.536;0.146;2023-07-08T16:06:07;7.50;;;2.73;;
76701;SDS011;70097;44.536;0.146;2023-07-08T16:11:38;6.93;;;3.13;;
76701;SDS011;70097;44.536;0.146;2023-07-08T16:17:12;6.27;;;2.90;;
76701;SDS011;70097;44.536;0.146;2023-07-08T16:22:45;4.00;;;2.63;;
76701;SDS011;70097;44.536;0.146;2023-07-08T16:28:27;5.63;;;3.00;;
76701;SDS011;70097;44.536;0.146;2023-07-08T16:39:21;6.33;;;2.90;;
76701;SDS011;70097;44.536;0.146;2023-07-08T16:44:54;8.30;;;3.13;;
76701;SDS011;70097;44.536;0.146;2023-07-08T16:50:27;6.20;;;3.17;;
76701;SDS011;70097;44.536;0.146;2023-07-08T16:56:00;11.93;;;4.67;;
76701;SDS011;70097;44.536;0.146;2023-07-08T17:01:33;7.63;;;2.63;;
76701;SDS011;70097;44.536;0.146;2023-07-08T17:07:07;7.53;;;3.40;;
76701;SDS011;70097;44.536;0.146;2023-07-08T17:12:38;9.13;;;3.20;;
76701;SDS011;70097;44.536;0.146;2023-07-08T17:18:14;6.00;;;3.40;;
76701;SDS011;70097;44.536;0.146;2023-07-08T17:23:42;5.47;;;2.63;;
76701;SDS011;70097;44.536;0.146;2023-07-08T17:29:15;6.23;;;3.23;;
76701;SDS011;70097;44.536;0.146;2023-07-08T17:34:47;6.17;;;2.53;;
76701;SDS011;70097;44.536;0.146;2023-07-08T17:40:19;6.13;;;3.20;;
76701;SDS011;70097;44.536;0.146;2023-07-08T17:45:51;5.67;;;2.93;;
76701;SDS011;70097;44.536;0.146;2023-07-08T17:51:23;5.07;;;2.57;;
76701;SDS011;70097;44.536;0.146;2023-07-08T17:56:55;7.23;;;3.30;;
76701;SDS011;70097;44.536;0.146;2023-07-08T18:02:28;5.57;;;3.27;;
76701;SDS011;70097;44.536;0.146;2023-07-08T18:08:01;8.37;;;4.57;;
76701;SDS011;70097;44.536;0.146;2023-07-08T18:13:34;11.03;;;5.30;;
76701;SDS011;70097;44.536;0.146;2023-07-08T18:19:07;9.90;;;5.13;;
76701;SDS011;70097;44.536;0.146;2023-07-08T18:24:40;9.77;;;4.90;;
76701;SDS011;70097;44.536;0.146;2023-07-08T18:30:14;8.00;;;4.77;;
76701;SDS011;70097;44.536;0.146;2023-07-08T18:35:47;7.90;;;4.20;;
76701;SDS011;70097;44.536;0.146;2023-07-08T18:41:19;9.60;;;3.90;;
76701;SDS011;70097;44.536;0.146;2023-07-08T18:46:52;8.57;;;4.10;;
76701;SDS011;70097;44.536;0.146;2023-07-08T18:52:25;6.37;;;3.07;;
76701;SDS011;70097;44.536;0.146;2023-07-08T18:57:57;9.67;;;3.60;;
76701;SDS011;70097;44.536;0.146;2023-07-08T19:03:29;7.17;;;3.77;;
76701;SDS011;70097;44.536;0.146;2023-07-08T19:09:02;5.43;;;2.57;;
76701;SDS011;70097;44.536;0.146;2023-07-08T19:14:35;7.13;;;3.80;;
76701;SDS011;70097;44.536;0.146;2023-07-08T19:20:09;6.57;;;4.20;;
76701;SDS011;70097;44.536;0.146;2023-07-08T19:25:41;7.53;;;4.03;;
76701;SDS011;70097;44.536;0.146;2023-07-08T19:31:17;6.57;;;3.40;;
76701;SDS011;70097;44.536;0.146;2023-07-08T19:36:45;8.83;;;3.77;;
76701;SDS011;70097;44.536;0.146;2023-07-08T19:42:20;5.97;;;2.90;;
76701;SDS011;70097;44.536;0.146;2023-07-08T19:47:53;5.83;;;3.13;;
76701;SDS011;70097;44.536;0.146;2023-07-08T19:53:25;9.47;;;5.13;;
76701;SDS011;70097;44.536;0.146;2023-07-08T19:59:00;7.07;;;3.67;;
76701;SDS011;70097;44.536;0.146;2023-07-08T20:04:31;19.63;;;4.57;;
76701;SDS011;70097;44.536;0.146;2023-07-08T20:10:04;9.03;;;4.07;;
76701;SDS011;70097;44.536;0.146;2023-07-08T20:15:36;7.13;;;4.33;;
76701;SDS011;70097;44.536;0.146;2023-07-08T20:21:08;11.80;;;3.80;;
76701;SDS011;70097;44.536;0.146;2023-07-08T20:26:42;9.43;;;4.03;;
76701;SDS011;70097;44.536;0.146;2023-07-08T20:32:15;7.57;;;3.63;;
76701;SDS011;70097;44.536;0.146;2023-07-08T20:37:47;10.20;;;4.90;;
76701;SDS011;70097;44.536;0.146;2023-07-08T20:43:19;7.43;;;3.87;;
76701;SDS011;70097;44.536;0.146;2023-07-08T20:48:53;15.70;;;4.13;;
76701;SDS011;70097;44.536;0.146;2023-07-08T20:54:24;12.77;;;4.03;;
76701;SDS011;70097;44.536;0.146;2023-07-08T20:59:55;11.63;;;5.10;;
76701;SDS011;70097;44.536;0.146;2023-07-08T21:05:29;12.37;;;4.77;;
76701;SDS011;70097;44.536;0.146;2023-07-08T21:11:02;8.47;;;4.47;;
76701;SDS011;70097;44.536;0.146;2023-07-08T21:16:34;8.10;;;4.70;;
76701;SDS011;70097;44.536;0.146;2023-07-08T21:22:07;9.37;;;4.87;;
76701;SDS011;70097;44.536;0.146;2023-07-08T21:27:39;11.97;;;5.83;;
76701;SDS011;70097;44.536;0.146;2023-07-08T21:33:12;12.00;;;5.93;;
76701;SDS011;70097;44.536;0.146;2023-07-08T21:38:45;9.83;;;5.47;;
76701;SDS011;70097;44.536;0.146;2023-07-08T21:44:17;9.63;;;5.17;;
76701;SDS011;70097;44.536;0.146;2023-07-08T21:49:49;10.77;;;6.13;;
76701;SDS011;70097;44.536;0.146;2023-07-08T21:55:22;10.03;;;5.47;;
76701;SDS011;70097;44.536;0.146;2023-07-08T22:00:54;9.60;;;5.90;;
76701;SDS011;70097;44.536;0.146;2023-07-08T22:06:27;11.93;;;6.77;;
76701;SDS011;70097;44.536;0.146;2023-07-08T22:11:59;9.40;;;5.80;;
76701;SDS011;70097;44.536;0.146;2023-07-08T22:17:31;14.57;;;9.67;;
76701;SDS011;70097;44.536;0.146;2023-07-08T22:23:06;9.20;;;6.83;;
76701;SDS011;70097;44.536;0.146;2023-07-08T22:28:38;9.00;;;6.47;;
76701;SDS011;70097;44.536;0.146;2023-07-08T22:34:11;12.03;;;6.93;;
76701;SDS011;70097;44.536;0.146;2023-07-08T22:39:42;14.87;;;6.87;;
76701;SDS011;70097;44.536;0.146;2023-07-08T22:45:16;11.63;;;6.00;;
76701;SDS011;70097;44.536;0.146;2023-07-08T22:50:48;9.87;;;6.23;;
76701;SDS011;70097;44.536;0.146;2023-07-08T22:56:20;7.77;;;5.53;;
76701;SDS011;70097;44.536;0.146;2023-07-08T23:01:53;10.70;;;7.47;;
76701;SDS011;70097;44.536;0.146;2023-07-08T23:07:25;8.23;;;6.40;;
76701;SDS011;70097;44.536;0.146;2023-07-08T23:12:57;10.27;;;6.70;;
76701;SDS011;70097;44.536;0.146;2023-07-08T23:18:30;12.17;;;6.07;;
76701;SDS011;70097;44.536;0.146;2023-07-08T23:24:02;9.53;;;6.50;;
76701;SDS011;70097;44.536;0.146;2023-07-08T23:29:35;10.73;;;5.87;;
76701;SDS011;70097;44.536;0.146;2023-07-08T23:35:08;10.40;;;6.70;;
76701;SDS011;70097;44.536;0.146;2023-07-08T23:40:41;9.97;;;6.50;;
76701;SDS011;70097;44.536;0.146;2023-07-08T23:46:15;9.50;;;5.80;;
76701;SDS011;70097;44.536;0.146;2023-07-08T23:51:45;10.20;;;6.43;;
76701;SDS011;70097;44.536;0.146;2023-07-08T23:57:18;8.70;;;5.80;;
